SEGU/GYE METAR and TAF weather

Enter ICAO airport designator
Station Type Date Time Source
SEGU METAR 2020/12/05 05:00 UTC NOAA

SEGU 050500Z 22013KT 9999 -RA FEW010 BKN023 OVC090 23/20 Q1012 NOSIG RMK A2989


Station Type Date Time Source
SEGU Decoded METAR 2020/12/05 05:00 UTC NOAA

Guayaquil / Simon Bolivar, Ecuador (SEGU) 02-09S 079-53W 9M
Dec 05, 2020 - 12:00 AM EST / 2020.12.05 0500 UTC
Wind: from the SW (220 degrees) at 15 MPH (13 KT):0
Visibility: greater than 7 mile(s):0
Sky conditions: overcast
Weather: light rain
Temperature: 73 F (23 C)
Dew Point: 68 F (20 C)
Relative Humidity: 83%
Pressure (altimeter): 29.88 in. Hg (1012 hPa)
ob: SEGU 050500Z 22013KT 9999 -RA FEW010 BKN023 OVC090 23/20 Q1012 NOSIG RMK A2989
cycle: 5

Station Type Date Time Source
SEGU TAF 2020/12/05 06:54 UTC NOAA

TAF TAF SEGU 050435Z 0506/0606 22012KT 9999 FEW010 BKN023
BECMG 0516/0518 15006KT BKN026
BECMG 0600/0602 22013KT FEW013 BKN023 TX28/0520Z TN22/0510Z

Example: see airport list